sensor_id;sensor_type;location;lat;lon;timestamp;temperature;humidity
51853;DHT22;37894;53.172;6.598;2023-11-19T00:03:13;10.70;99.90
51853;DHT22;37894;53.172;6.598;2023-11-19T00:05:39;10.50;99.90
51853;DHT22;37894;53.172;6.598;2023-11-19T00:08:05;11.80;99.90
51853;DHT22;37894;53.172;6.598;2023-11-19T00:10:31;10.50;99.90
51853;DHT22;37894;53.172;6.598;2023-11-19T00:12:57;11.00;99.90
51853;DHT22;37894;53.172;6.598;2023-11-19T00:15:23;10.80;99.90
51853;DHT22;37894;53.172;6.598;2023-11-19T00:17:49;11.00;99.90
51853;DHT22;37894;53.172;6.598;2023-11-19T00:20:17;10.90;99.90
51853;DHT22;37894;53.172;6.598;2023-11-19T00:22:43;11.70;99.90
51853;DHT22;37894;53.172;6.598;2023-11-19T00:25:09;11.30;99.90
51853;DHT22;37894;53.172;6.598;2023-11-19T00:27:35;11.10;99.90
51853;DHT22;37894;53.172;6.598;2023-11-19T00:30:04;11.70;99.90
51853;DHT22;37894;53.172;6.598;2023-11-19T00:32:31;11.50;99.90
51853;DHT22;37894;53.172;6.598;2023-11-19T00:34:57;12.00;99.90
51853;DHT22;37894;53.172;6.598;2023-11-19T00:39:49;11.80;99.90
51853;DHT22;37894;53.172;6.598;2023-11-19T00:42:15;12.60;99.90
51853;DHT22;37894;53.172;6.598;2023-11-19T00:44:41;11.30;99.90
51853;DHT22;37894;53.172;6.598;2023-11-19T00:47:07;12.10;99.90
51853;DHT22;37894;53.172;6.598;2023-11-19T00:49:33;11.50;99.90
51853;DHT22;37894;53.172;6.598;2023-11-19T00:51:59;12.10;99.90
51853;DHT22;37894;53.172;6.598;2023-11-19T00:54:25;11.70;99.90
51853;DHT22;37894;53.172;6.598;2023-11-19T00:56:55;11.70;99.90
51853;DHT22;37894;53.172;6.598;2023-11-19T00:59:20;11.90;99.90
51853;DHT22;37894;53.172;6.598;2023-11-19T01:01:46;11.80;99.90
51853;DHT22;37894;53.172;6.598;2023-11-19T01:04:16;11.10;99.90
51853;DHT22;37894;53.172;6.598;2023-11-19T01:06:42;12.30;99.90
51853;DHT22;37894;53.172;6.598;2023-11-19T01:09:08;12.60;99.90
51853;DHT22;37894;53.172;6.598;2023-11-19T01:14:01;11.70;99.90
51853;DHT22;37894;53.172;6.598;2023-11-19T01:16:27;11.60;99.90
51853;DHT22;37894;53.172;6.598;2023-11-19T01:18:53;12.10;99.90
51853;DHT22;37894;53.172;6.598;2023-11-19T01:21:20;13.00;99.90
51853;DHT22;37894;53.172;6.598;2023-11-19T01:23:45;11.20;99.90
51853;DHT22;37894;53.172;6.598;2023-11-19T01:26:12;11.50;99.90
51853;DHT22;37894;53.172;6.598;2023-11-19T01:28:41;11.30;99.90
51853;DHT22;37894;53.172;6.598;2023-11-19T01:31:11;11.90;99.90
51853;DHT22;37894;53.172;6.598;2023-11-19T01:33:36;12.00;99.90
51853;DHT22;37894;53.172;6.598;2023-11-19T01:36:03;12.40;99.90
51853;DHT22;37894;53.172;6.598;2023-11-19T01:38:29;11.70;99.90
51853;DHT22;37894;53.172;6.598;2023-11-19T01:40:56;12.70;99.90
51853;DHT22;37894;53.172;6.598;2023-11-19T01:43:35;13.10;99.90
51853;DHT22;37894;53.172;6.598;2023-11-19T01:46:02;11.90;99.90
51853;DHT22;37894;53.172;6.598;2023-11-19T01:48:34;11.90;99.90
51853;DHT22;37894;53.172;6.598;2023-11-19T01:51:02;11.80;99.90
51853;DHT22;37894;53.172;6.598;2023-11-19T01:53:29;11.80;99.90
51853;DHT22;37894;53.172;6.598;2023-11-19T01:55:56;11.90;99.90
51853;DHT22;37894;53.172;6.598;2023-11-19T01:58:23;12.30;99.90
51853;DHT22;37894;53.172;6.598;2023-11-19T02:00:48;11.60;99.90
51853;DHT22;37894;53.172;6.598;2023-11-19T02:03:15;11.90;99.90
51853;DHT22;37894;53.172;6.598;2023-11-19T02:05:41;11.70;99.90
51853;DHT22;37894;53.172;6.598;2023-11-19T02:08:07;11.40;99.90
51853;DHT22;37894;53.172;6.598;2023-11-19T02:10:33;12.20;99.90
51853;DHT22;37894;53.172;6.598;2023-11-19T02:13:00;12.10;99.90
51853;DHT22;37894;53.172;6.598;2023-11-19T02:15:26;11.80;99.90
51853;DHT22;37894;53.172;6.598;2023-11-19T02:17:52;11.10;99.90
51853;DHT22;37894;53.172;6.598;2023-11-19T02:20:18;11.30;99.90
51853;DHT22;37894;53.172;6.598;2023-11-19T02:22:46;11.70;99.90
51853;DHT22;37894;53.172;6.598;2023-11-19T02:25:30;12.00;99.90
51853;DHT22;37894;53.172;6.598;2023-11-19T02:28:02;11.70;99.90
51853;DHT22;37894;53.172;6.598;2023-11-19T02:35:27;12.10;99.90
51853;DHT22;37894;53.172;6.598;2023-11-19T02:37:54;11.50;99.90
51853;DHT22;37894;53.172;6.598;2023-11-19T02:40:20;11.70;99.90
51853;DHT22;37894;53.172;6.598;2023-11-19T02:42:48;11.60;99.90
51853;DHT22;37894;53.172;6.598;2023-11-19T02:45:14;11.60;99.90
51853;DHT22;37894;53.172;6.598;2023-11-19T02:47:41;11.80;99.90
51853;DHT22;37894;53.172;6.598;2023-11-19T02:50:10;11.50;99.90
51853;DHT22;37894;53.172;6.598;2023-11-19T02:52:43;11.40;99.90
51853;DHT22;37894;53.172;6.598;2023-11-19T02:55:11;11.50;99.90
51853;DHT22;37894;53.172;6.598;2023-11-19T02:57:41;11.90;99.90
51853;DHT22;37894;53.172;6.598;2023-11-19T03:00:18;11.80;99.90
51853;DHT22;37894;53.172;6.598;2023-11-19T03:02:49;11.90;99.90
51853;DHT22;37894;53.172;6.598;2023-11-19T03:05:24;11.50;99.90
51853;DHT22;37894;53.172;6.598;2023-11-19T03:07:50;11.90;99.90
51853;DHT22;37894;53.172;6.598;2023-11-19T03:10:17;11.70;99.90
51853;DHT22;37894;53.172;6.598;2023-11-19T03:12:44;11.90;99.90
51853;DHT22;37894;53.172;6.598;2023-11-19T03:15:11;11.90;99.90
51853;DHT22;37894;53.172;6.598;2023-11-19T03:17:43;10.90;99.90
51853;DHT22;37894;53.172;6.598;2023-11-19T03:20:10;11.70;99.90
51853;DHT22;37894;53.172;6.598;2023-11-19T03:22:39;11.80;99.90
51853;DHT22;37894;53.172;6.598;2023-11-19T03:25:07;11.30;99.90
51853;DHT22;37894;53.172;6.598;2023-11-19T03:27:37;12.00;99.90
51853;DHT22;37894;53.172;6.598;2023-11-19T03:30:08;11.60;99.90
51853;DHT22;37894;53.172;6.598;2023-11-19T03:32:35;11.80;99.90
51853;DHT22;37894;53.172;6.598;2023-11-19T03:35:01;11.30;99.90
51853;DHT22;37894;53.172;6.598;2023-11-19T03:37:28;11.40;99.90
51853;DHT22;37894;53.172;6.598;2023-11-19T03:39:54;11.70;99.90
51853;DHT22;37894;53.172;6.598;2023-11-19T03:42:20;11.60;99.90
51853;DHT22;37894;53.172;6.598;2023-11-19T03:44:46;11.80;99.90
51853;DHT22;37894;53.172;6.598;2023-11-19T03:47:12;12.40;99.90
51853;DHT22;37894;53.172;6.598;2023-11-19T03:54:30;11.90;99.90
51853;DHT22;37894;53.172;6.598;2023-11-19T03:56:56;12.00;99.90
51853;DHT22;37894;53.172;6.598;2023-11-19T04:01:47;11.70;99.90
51853;DHT22;37894;53.172;6.598;2023-11-19T04:06:39;11.40;99.90
51853;DHT22;37894;53.172;6.598;2023-11-19T04:09:05;11.60;99.90
51853;DHT22;37894;53.172;6.598;2023-11-19T04:11:31;11.50;99.90
51853;DHT22;37894;53.172;6.598;2023-11-19T04:13:58;12.40;99.90
51853;DHT22;37894;53.172;6.598;2023-11-19T04:16:27;10.90;99.90
51853;DHT22;37894;53.172;6.598;2023-11-19T04:21:22;11.70;99.90
51853;DHT22;37894;53.172;6.598;2023-11-19T04:23:49;11.50;99.90
51853;DHT22;37894;53.172;6.598;2023-11-19T04:28:41;11.70;99.90
51853;DHT22;37894;53.172;6.598;2023-11-19T04:31:07;11.90;99.90
51853;DHT22;37894;53.172;6.598;2023-11-19T04:36:00;11.30;99.90
51853;DHT22;37894;53.172;6.598;2023-11-19T04:40:52;11.50;99.90
51853;DHT22;37894;53.172;6.598;2023-11-19T04:43:18;11.10;99.90
51853;DHT22;37894;53.172;6.598;2023-11-19T04:45:46;11.30;99.90
51853;DHT22;37894;53.172;6.598;2023-11-19T04:48:14;11.40;99.90
51853;DHT22;37894;53.172;6.598;2023-11-19T04:53:06;11.80;99.90
51853;DHT22;37894;53.172;6.598;2023-11-19T05:00:24;12.00;99.90
51853;DHT22;37894;53.172;6.598;2023-11-19T05:08:07;11.50;99.90
51853;DHT22;37894;53.172;6.598;2023-11-19T05:10:33;11.10;99.90
51853;DHT22;37894;53.172;6.598;2023-11-19T05:20:17;12.20;99.90
51853;DHT22;37894;53.172;6.598;2023-11-19T05:27:36;11.50;99.90
51853;DHT22;37894;53.172;6.598;2023-11-19T05:30:05;11.20;99.90
51853;DHT22;37894;53.172;6.598;2023-11-19T05:52:02;11.10;99.90
51853;DHT22;37894;53.172;6.598;2023-11-19T05:54:28;11.20;99.90
51853;DHT22;37894;53.172;6.598;2023-11-19T06:09:07;12.10;99.90
51853;DHT22;37894;53.172;6.598;2023-11-19T06:11:34;11.50;99.90
51853;DHT22;37894;53.172;6.598;2023-11-19T06:28:39;10.90;99.90
51853;DHT22;37894;53.172;6.598;2023-11-19T06:35:59;11.20;99.90
51853;DHT22;37894;53.172;6.598;2023-11-19T06:53:02;11.30;99.90
51853;DHT22;37894;53.172;6.598;2023-11-19T07:12:34;11.10;99.90
51853;DHT22;37894;53.172;6.598;2023-11-19T07:24:47;11.00;99.90
51853;DHT22;37894;53.172;6.598;2023-11-19T07:32:05;11.80;99.90
51853;DHT22;37894;53.172;6.598;2023-11-19T07:34:31;11.00;99.90
51853;DHT22;37894;53.172;6.598;2023-11-19T07:39:25;11.70;99.90
51853;DHT22;37894;53.172;6.598;2023-11-19T07:56:29;10.70;99.90
51853;DHT22;37894;53.172;6.598;2023-11-19T08:23:21;11.20;99.90
51853;DHT22;37894;53.172;6.598;2023-11-19T08:25:47;11.60;99.90
51853;DHT22;37894;53.172;6.598;2023-11-19T08:33:06;11.70;99.90
51853;DHT22;37894;53.172;6.598;2023-11-19T08:55:03;11.30;99.90
51853;DHT22;37894;53.172;6.598;2023-11-19T09:02:24;11.80;99.90
51853;DHT22;37894;53.172;6.598;2023-11-19T09:04:57;11.20;99.90
51853;DHT22;37894;53.172;6.598;2023-11-19T09:22:11;12.50;99.90
51853;DHT22;37894;53.172;6.598;2023-11-19T09:24:37;11.20;99.90
51853;DHT22;37894;53.172;6.598;2023-11-19T09:48:44;11.60;99.90
51853;DHT22;37894;53.172;6.598;2023-11-19T09:51:10;11.60;99.90
51853;DHT22;37894;53.172;6.598;2023-11-19T09:53:37;11.70;99.90
51853;DHT22;37894;53.172;6.598;2023-11-19T09:56:04;11.70;99.90
51853;DHT22;37894;53.172;6.598;2023-11-19T10:15:37;11.90;99.90
51853;DHT22;37894;53.172;6.598;2023-11-19T10:18:03;11.90;99.90
51853;DHT22;37894;53.172;6.598;2023-11-19T10:20:41;11.90;99.90
51853;DHT22;37894;53.172;6.598;2023-11-19T10:25:33;11.90;99.90
51853;DHT22;37894;53.172;6.598;2023-11-19T10:28:00;11.90;99.90
51853;DHT22;37894;53.172;6.598;2023-11-19T10:30:27;11.90;99.90
51853;DHT22;37894;53.172;6.598;2023-11-19T10:33:08;11.80;99.90
51853;DHT22;37894;53.172;6.598;2023-11-19T10:35:51;11.80;99.90
51853;DHT22;37894;53.172;6.598;2023-11-19T10:45:38;11.70;99.90
51853;DHT22;37894;53.172;6.598;2023-11-19T10:48:05;10.80;99.90
51853;DHT22;37894;53.172;6.598;2023-11-19T10:55:32;12.00;99.90
51853;DHT22;37894;53.172;6.598;2023-11-19T10:58:02;11.70;99.90
51853;DHT22;37894;53.172;6.598;2023-11-19T11:00:29;11.70;99.90
51853;DHT22;37894;53.172;6.598;2023-11-19T11:03:02;11.70;99.90
51853;DHT22;37894;53.172;6.598;2023-11-19T11:05:34;11.70;99.90
51853;DHT22;37894;53.172;6.598;2023-11-19T11:08:00;11.70;99.90
51853;DHT22;37894;53.172;6.598;2023-11-19T11:12:52;11.80;99.90
51853;DHT22;37894;53.172;6.598;2023-11-19T11:15:27;11.80;99.90
51853;DHT22;37894;53.172;6.598;2023-11-19T11:17:59;11.90;99.90
51853;DHT22;37894;53.172;6.598;2023-11-19T11:23:17;12.00;99.90
51853;DHT22;37894;53.172;6.598;2023-11-19T11:29:02;12.00;99.90
51853;DHT22;37894;53.172;6.598;2023-11-19T11:31:48;12.00;99.90
51853;DHT22;37894;53.172;6.598;2023-11-19T11:37:15;12.10;99.90
51853;DHT22;37894;53.172;6.598;2023-11-19T11:45:06;12.20;99.90
51853;DHT22;37894;53.172;6.598;2023-11-19T11:50:15;12.20;99.90
51853;DHT22;37894;53.172;6.598;2023-11-19T11:55:51;12.20;99.90
51853;DHT22;37894;53.172;6.598;2023-11-19T11:58:21;12.30;99.90
51853;DHT22;37894;53.172;6.598;2023-11-19T12:00:48;12.30;99.90
51853;DHT22;37894;53.172;6.598;2023-11-19T12:05:47;12.20;99.90
51853;DHT22;37894;53.172;6.598;2023-11-19T12:10:48;12.10;99.90
51853;DHT22;37894;53.172;6.598;2023-11-19T12:18:27;12.10;99.90
51853;DHT22;37894;53.172;6.598;2023-11-19T12:28:15;12.30;99.90
51853;DHT22;37894;53.172;6.598;2023-11-19T12:35:41;12.30;99.90
51853;DHT22;37894;53.172;6.598;2023-11-19T12:38:21;12.20;99.90
51853;DHT22;37894;53.172;6.598;2023-11-19T12:41:05;12.30;99.90
51853;DHT22;37894;53.172;6.598;2023-11-19T12:50:56;12.40;99.90
51853;DHT22;37894;53.172;6.598;2023-11-19T12:58:30;12.40;99.90
51853;DHT22;37894;53.172;6.598;2023-11-19T13:01:04;12.40;99.90
51853;DHT22;37894;53.172;6.598;2023-11-19T13:03:35;12.40;99.90
51853;DHT22;37894;53.172;6.598;2023-11-19T13:06:05;12.40;99.90
51853;DHT22;37894;53.172;6.598;2023-11-19T13:08:37;12.40;99.90
51853;DHT22;37894;53.172;6.598;2023-11-19T13:16:07;12.40;99.90
51853;DHT22;37894;53.172;6.598;2023-11-19T13:18:34;12.40;99.90
51853;DHT22;37894;53.172;6.598;2023-11-19T13:50:19;13.00;99.90
51853;DHT22;37894;53.172;6.598;2023-11-19T13:57:40;12.40;99.90
51853;DHT22;37894;53.172;6.598;2023-11-19T14:00:08;12.10;99.90
51853;DHT22;37894;53.172;6.598;2023-11-19T14:02:42;12.10;99.90
51853;DHT22;37894;53.172;6.598;2023-11-19T14:49:04;11.30;99.90
51853;DHT22;37894;53.172;6.598;2023-11-19T14:51:31;11.80;99.90
51853;DHT22;37894;53.172;6.598;2023-11-19T15:47:38;11.20;99.90
51853;DHT22;37894;53.172;6.598;2023-11-19T15:50:05;11.60;99.90
51853;DHT22;37894;53.172;6.598;2023-11-19T15:57:25;11.80;99.90
51853;DHT22;37894;53.172;6.598;2023-11-19T16:07:14;11.50;99.90
51853;DHT22;37894;53.172;6.598;2023-11-19T16:24:18;11.00;99.90
51853;DHT22;37894;53.172;6.598;2023-11-19T16:41:22;11.00;99.90
51853;DHT22;37894;53.172;6.598;2023-11-19T16:48:45;11.00;99.90
51853;DHT22;37894;53.172;6.598;2023-11-19T17:01:14;11.00;99.90
51853;DHT22;37894;53.172;6.598;2023-11-19T17:11:03;11.00;99.90
51853;DHT22;37894;53.172;6.598;2023-11-19T17:30:36;10.90;99.90
51853;DHT22;37894;53.172;6.598;2023-11-19T17:33:03;10.80;99.90
51853;DHT22;37894;53.172;6.598;2023-11-19T17:37:57;10.80;99.90
51853;DHT22;37894;53.172;6.598;2023-11-19T17:40:23;10.80;99.90
51853;DHT22;37894;53.172;6.598;2023-11-19T17:42:49;10.60;99.90
51853;DHT22;37894;53.172;6.598;2023-11-19T17:47:41;10.70;99.90
51853;DHT22;37894;53.172;6.598;2023-11-19T17:50:07;10.70;99.90
51853;DHT22;37894;53.172;6.598;2023-11-19T17:52:35;11.10;99.90
51853;DHT22;37894;53.172;6.598;2023-11-19T17:55:01;10.20;99.90
51853;DHT22;37894;53.172;6.598;2023-11-19T17:57:30;11.60;99.90
51853;DHT22;37894;53.172;6.598;2023-11-19T18:07:18;10.70;99.90
51853;DHT22;37894;53.172;6.598;2023-11-19T18:09:44;10.80;99.90
51853;DHT22;37894;53.172;6.598;2023-11-19T18:14:39;10.60;99.90
51853;DHT22;37894;53.172;6.598;2023-11-19T18:17:05;10.90;99.90
51853;DHT22;37894;53.172;6.598;2023-11-19T18:19:31;10.70;99.90
51853;DHT22;37894;53.172;6.598;2023-11-19T18:21:58;10.40;99.90
51853;DHT22;37894;53.172;6.598;2023-11-19T18:24:26;10.60;99.90
51853;DHT22;37894;53.172;6.598;2023-11-19T18:26:52;10.90;99.90
51853;DHT22;37894;53.172;6.598;2023-11-19T18:29:17;10.80;99.90
51853;DHT22;37894;53.172;6.598;2023-11-19T18:31:43;9.80;99.90
51853;DHT22;37894;53.172;6.598;2023-11-19T18:34:09;10.80;99.90
51853;DHT22;37894;53.172;6.598;2023-11-19T18:36:36;10.30;99.90
51853;DHT22;37894;53.172;6.598;2023-11-19T18:39:06;10.50;99.90
51853;DHT22;37894;53.172;6.598;2023-11-19T18:41:36;10.30;99.90
51853;DHT22;37894;53.172;6.598;2023-11-19T18:44:01;10.20;99.90
51853;DHT22;37894;53.172;6.598;2023-11-19T18:46:28;10.50;99.90
51853;DHT22;37894;53.172;6.598;2023-11-19T18:48:54;10.30;99.90
51853;DHT22;37894;53.172;6.598;2023-11-19T18:51:20;11.00;99.90
51853;DHT22;37894;53.172;6.598;2023-11-19T18:53:46;9.90;99.90
51853;DHT22;37894;53.172;6.598;2023-11-19T18:56:12;10.50;99.90
51853;DHT22;37894;53.172;6.598;2023-11-19T18:58:39;10.40;99.90
51853;DHT22;37894;53.172;6.598;2023-11-19T19:01:05;10.50;99.90
51853;DHT22;37894;53.172;6.598;2023-11-19T19:03:30;10.10;99.90
51853;DHT22;37894;53.172;6.598;2023-11-19T19:05:57;10.50;99.90
51853;DHT22;37894;53.172;6.598;2023-11-19T19:10:50;11.40;99.90
51853;DHT22;37894;53.172;6.598;2023-11-19T19:13:15;10.80;99.90
51853;DHT22;37894;53.172;6.598;2023-11-19T19:15:41;10.60;99.90
51853;DHT22;37894;53.172;6.598;2023-11-19T19:18:07;10.90;99.90
51853;DHT22;37894;53.172;6.598;2023-11-19T19:20:33;8.40;99.90
51853;DHT22;37894;53.172;6.598;2023-11-19T19:22:59;10.20;99.90
51853;DHT22;37894;53.172;6.598;2023-11-19T19:25:25;10.50;99.90
51853;DHT22;37894;53.172;6.598;2023-11-19T19:30:19;11.20;99.90
51853;DHT22;37894;53.172;6.598;2023-11-19T19:35:12;10.10;99.90
51853;DHT22;37894;53.172;6.598;2023-11-19T19:44:56;10.50;99.90
51853;DHT22;37894;53.172;6.598;2023-11-19T19:49:48;10.60;99.90
51853;DHT22;37894;53.172;6.598;2023-11-19T19:52:15;10.60;99.90
51853;DHT22;37894;53.172;6.598;2023-11-19T19:57:07;10.70;99.90
51853;DHT22;37894;53.172;6.598;2023-11-19T20:02:00;10.30;99.90
51853;DHT22;37894;53.172;6.598;2023-11-19T20:04:27;10.40;99.90
51853;DHT22;37894;53.172;6.598;2023-11-19T20:09:19;10.30;99.90
51853;DHT22;37894;53.172;6.598;2023-11-19T20:11:45;10.20;99.90
51853;DHT22;37894;53.172;6.598;2023-11-19T20:21:32;10.40;99.90
51853;DHT22;37894;53.172;6.598;2023-11-19T20:23:57;10.40;99.90
51853;DHT22;37894;53.172;6.598;2023-11-19T20:26:23;10.30;99.90
51853;DHT22;37894;53.172;6.598;2023-11-19T20:33:44;10.80;99.90
51853;DHT22;37894;53.172;6.598;2023-11-19T20:36:10;10.00;99.90
51853;DHT22;37894;53.172;6.598;2023-11-19T20:38:36;10.40;99.90
51853;DHT22;37894;53.172;6.598;2023-11-19T20:41:02;10.50;99.90
51853;DHT22;37894;53.172;6.598;2023-11-19T20:48:20;11.00;99.90
51853;DHT22;37894;53.172;6.598;2023-11-19T20:53:13;10.60;99.90
51853;DHT22;37894;53.172;6.598;2023-11-19T20:55:38;10.50;99.90
51853;DHT22;37894;53.172;6.598;2023-11-19T20:58:05;10.90;99.90
51853;DHT22;37894;53.172;6.598;2023-11-19T21:00:34;11.00;99.90
51853;DHT22;37894;53.172;6.598;2023-11-19T21:10:18;10.60;99.90
51853;DHT22;37894;53.172;6.598;2023-11-19T21:12:44;10.40;99.90
51853;DHT22;37894;53.172;6.598;2023-11-19T21:15:12;10.10;99.90
51853;DHT22;37894;53.172;6.598;2023-11-19T21:17:37;10.70;99.90
51853;DHT22;37894;53.172;6.598;2023-11-19T21:20:04;11.20;99.90
51853;DHT22;37894;53.172;6.598;2023-11-19T21:22:30;10.10;99.90
51853;DHT22;37894;53.172;6.598;2023-11-19T21:27:22;11.60;99.90
51853;DHT22;37894;53.172;6.598;2023-11-19T21:29:48;10.90;99.90
51853;DHT22;37894;53.172;6.598;2023-11-19T21:32:14;11.10;99.90
51853;DHT22;37894;53.172;6.598;2023-11-19T21:34:39;10.90;99.90
51853;DHT22;37894;53.172;6.598;2023-11-19T21:44:26;10.90;99.90
51853;DHT22;37894;53.172;6.598;2023-11-19T21:56:36;10.90;99.90
51853;DHT22;37894;53.172;6.598;2023-11-19T21:59:02;11.30;99.90
51853;DHT22;37894;53.172;6.598;2023-11-19T22:01:27;10.80;99.90
51853;DHT22;37894;53.172;6.598;2023-11-19T22:03:54;10.80;99.90
51853;DHT22;37894;53.172;6.598;2023-11-19T22:06:19;10.80;99.90
51853;DHT22;37894;53.172;6.598;2023-11-19T22:08:46;10.90;99.90
51853;DHT22;37894;53.172;6.598;2023-11-19T22:11:12;10.90;99.90
51853;DHT22;37894;53.172;6.598;2023-11-19T22:13:38;10.90;99.90
51853;DHT22;37894;53.172;6.598;2023-11-19T22:23:22;10.80;99.90
51853;DHT22;37894;53.172;6.598;2023-11-19T22:25:51;10.90;99.90
51853;DHT22;37894;53.172;6.598;2023-11-19T22:28:16;10.80;99.90
51853;DHT22;37894;53.172;6.598;2023-11-19T22:30:43;10.90;99.90
51853;DHT22;37894;53.172;6.598;2023-11-19T22:33:09;10.70;99.90
51853;DHT22;37894;53.172;6.598;2023-11-19T22:35:34;10.60;99.90
51853;DHT22;37894;53.172;6.598;2023-11-19T22:38:00;10.70;99.90
51853;DHT22;37894;53.172;6.598;2023-11-19T22:40:26;11.10;99.90
51853;DHT22;37894;53.172;6.598;2023-11-19T22:42:52;10.70;99.90
51853;DHT22;37894;53.172;6.598;2023-11-19T22:45:18;10.50;99.90
51853;DHT22;37894;53.172;6.598;2023-11-19T22:47:44;10.40;99.90
51853;DHT22;37894;53.172;6.598;2023-11-19T22:50:10;10.60;99.90
51853;DHT22;37894;53.172;6.598;2023-11-19T22:52:36;10.60;99.90
51853;DHT22;37894;53.172;6.598;2023-11-19T22:55:03;9.70;99.90
51853;DHT22;37894;53.172;6.598;2023-11-19T22:57:31;11.10;99.90
51853;DHT22;37894;53.172;6.598;2023-11-19T22:59:57;10.70;99.90
51853;DHT22;37894;53.172;6.598;2023-11-19T23:02:23;10.40;99.90
51853;DHT22;37894;53.172;6.598;2023-11-19T23:04:52;10.80;99.90
51853;DHT22;37894;53.172;6.598;2023-11-19T23:12:10;10.60;99.90
51853;DHT22;37894;53.172;6.598;2023-11-19T23:14:36;10.30;99.90
51853;DHT22;37894;53.172;6.598;2023-11-19T23:19:32;10.60;99.90
51853;DHT22;37894;53.172;6.598;2023-11-19T23:21:57;10.90;99.90
51853;DHT22;37894;53.172;6.598;2023-11-19T23:26:49;9.90;99.90
51853;DHT22;37894;53.172;6.598;2023-11-19T23:29:15;10.70;99.90
51853;DHT22;37894;53.172;6.598;2023-11-19T23:31:40;10.30;99.90
51853;DHT22;37894;53.172;6.598;2023-11-19T23:38:58;10.20;99.90
51853;DHT22;37894;53.172;6.598;2023-11-19T23:41:24;10.20;99.90
51853;DHT22;37894;53.172;6.598;2023-11-19T23:43:49;10.90;99.90
51853;DHT22;37894;53.172;6.598;2023-11-19T23:46:15;10.40;99.90
51853;DHT22;37894;53.172;6.598;2023-11-19T23:48:41;10.40;99.90
51853;DHT22;37894;53.172;6.598;2023-11-19T23:53:35;10.10;99.90
51853;DHT22;37894;53.172;6.598;2023-11-19T23:56:00;10.50;99.90
